createdAt,value
2018-12-19T00:00:27.582Z,8.07
2018-12-19T00:02:55.053Z,9.03
2018-12-19T00:05:22.509Z,7.30
2018-12-19T00:07:49.993Z,6.47
2018-12-19T00:10:17.448Z,7.30
2018-12-19T00:12:44.905Z,8.30
2018-12-19T00:15:12.381Z,8.20
2018-12-19T00:17:39.848Z,7.17
2018-12-19T00:20:07.337Z,6.43
2018-12-19T00:22:34.796Z,6.10
2018-12-19T00:25:02.258Z,8.30
2018-12-19T00:27:29.730Z,8.13
2018-12-19T00:29:57.175Z,6.70
2018-12-19T00:32:24.656Z,7.13
2018-12-19T00:34:52.127Z,6.30
2018-12-19T00:37:19.628Z,6.87
2018-12-19T00:39:47.069Z,6.50
2018-12-19T00:42:14.576Z,5.70
2018-12-19T00:44:42.023Z,6.57
2018-12-19T00:47:09.728Z,7.20
2018-12-19T00:49:37.209Z,6.17
2018-12-19T00:52:04.662Z,7.30
2018-12-19T00:54:32.092Z,6.93
2018-12-19T00:56:59.538Z,7.20
2018-12-19T00:59:26.996Z,6.80
2018-12-19T01:01:54.459Z,6.00
2018-12-19T01:04:21.948Z,6.70
2018-12-19T01:06:49.440Z,6.10
2018-12-19T01:09:16.882Z,6.13
2018-12-19T01:11:44.331Z,5.63
2018-12-19T01:14:11.837Z,5.87
2018-12-19T01:16:39.304Z,6.67
2018-12-19T01:19:06.752Z,6.33
2018-12-19T01:21:34.203Z,6.87
2018-12-19T01:24:01.649Z,6.67
2018-12-19T01:26:29.136Z,7.07
2018-12-19T01:28:56.601Z,8.10
2018-12-19T01:31:24.071Z,7.57
2018-12-19T01:33:51.548Z,7.30
2018-12-19T01:36:18.984Z,7.57
2018-12-19T01:38:46.459Z,5.87
2018-12-19T01:41:13.914Z,7.40
2018-12-19T01:43:41.362Z,7.60
2018-12-19T01:46:08.807Z,6.43
2018-12-19T01:48:36.289Z,6.33
2018-12-19T01:51:03.760Z,6.33
2018-12-19T01:53:31.215Z,6.60
2018-12-19T01:55:58.877Z,5.97
2018-12-19T01:58:26.326Z,6.73
2018-12-19T02:00:53.805Z,8.20
2018-12-19T02:03:21.280Z,6.70
2018-12-19T02:05:48.729Z,8.00
2018-12-19T02:08:16.176Z,7.90
2018-12-19T02:10:43.678Z,6.80
2018-12-19T02:13:11.159Z,7.80
2018-12-19T02:15:38.646Z,8.10
2018-12-19T02:18:06.079Z,7.00
2018-12-19T02:20:33.564Z,7.07
2018-12-19T02:23:01.025Z,6.50
2018-12-19T02:25:28.467Z,7.30
2018-12-19T02:27:55.955Z,7.50
2018-12-19T02:30:23.405Z,6.00
2018-12-19T02:32:50.867Z,8.80
2018-12-19T02:35:18.368Z,7.90
2018-12-19T02:37:45.843Z,7.53
2018-12-19T02:40:13.309Z,8.50
2018-12-19T02:42:40.777Z,7.60
2018-12-19T02:45:08.263Z,8.13
2018-12-19T02:47:35.736Z,10.07
2018-12-19T02:50:04.226Z,8.43
2018-12-19T02:52:31.692Z,9.77
2018-12-19T02:54:59.173Z,8.13
2018-12-19T02:57:26.668Z,8.10
2018-12-19T02:59:54.143Z,8.13
2018-12-19T03:02:21.620Z,8.30
2018-12-19T03:04:49.095Z,8.03
2018-12-19T03:07:16.646Z,8.57
2018-12-19T03:09:44.094Z,7.70
2018-12-19T03:12:11.572Z,8.00
2018-12-19T03:14:39.116Z,8.03
2018-12-19T03:17:06.594Z,6.80
2018-12-19T03:19:34.048Z,7.93
2018-12-19T03:22:01.505Z,7.80
2018-12-19T03:24:28.960Z,8.60
2018-12-19T03:26:56.419Z,7.80
2018-12-19T03:29:23.948Z,7.60
2018-12-19T03:31:51.413Z,6.90
2018-12-19T03:34:18.860Z,6.83
2018-12-19T03:36:46.388Z,8.90
2018-12-19T03:39:13.847Z,7.20
2018-12-19T03:41:41.371Z,7.00
2018-12-19T03:44:08.898Z,7.30
2018-12-19T03:46:36.380Z,7.93
2018-12-19T03:49:03.863Z,7.00
2018-12-19T03:51:31.348Z,7.73
2018-12-19T03:53:58.789Z,8.47
2018-12-19T03:56:26.259Z,7.70
2018-12-19T03:58:53.753Z,8.37
2018-12-19T04:01:21.259Z,8.23
2018-12-19T04:03:48.751Z,7.60
2018-12-19T04:06:16.219Z,8.50
2018-12-19T04:08:43.668Z,7.70
2018-12-19T04:11:11.136Z,7.37
2018-12-19T04:13:38.583Z,8.50
2018-12-19T04:16:06.092Z,6.23
2018-12-19T04:18:33.529Z,8.17
2018-12-19T04:21:01.003Z,7.43
2018-12-19T04:23:28.445Z,8.07
2018-12-19T04:25:55.928Z,8.60
2018-12-19T04:28:23.368Z,7.13
2018-12-19T04:30:51.007Z,8.50
2018-12-19T04:33:18.733Z,8.40
2018-12-19T04:35:46.470Z,7.20
2018-12-19T04:38:14.325Z,7.87
2018-12-19T04:40:41.815Z,8.00
2018-12-19T04:43:09.244Z,7.23
2018-12-19T04:45:36.689Z,7.77
2018-12-19T04:48:04.161Z,7.87
2018-12-19T04:50:31.615Z,8.50
2018-12-19T04:52:59.160Z,7.80
2018-12-19T04:55:26.623Z,9.33
2018-12-19T04:57:54.079Z,8.63
2018-12-19T05:00:22.364Z,8.83
2018-12-19T05:02:49.806Z,8.83
2018-12-19T05:05:17.278Z,7.83
2018-12-19T05:07:44.831Z,8.50
2018-12-19T05:10:12.619Z,8.50
2018-12-19T05:12:40.184Z,8.70
2018-12-19T05:15:07.684Z,7.80
2018-12-19T05:17:35.120Z,7.90
2018-12-19T05:20:02.844Z,8.67
2018-12-19T05:22:30.293Z,8.90
2018-12-19T05:24:57.752Z,8.87
2018-12-19T05:27:25.231Z,9.67
2018-12-19T05:29:53.312Z,9.40
2018-12-19T05:32:20.865Z,8.63
2018-12-19T05:34:48.344Z,8.47
2018-12-19T05:37:15.834Z,9.03
2018-12-19T05:39:43.280Z,9.83
2018-12-19T05:42:10.738Z,9.87
2018-12-19T05:44:38.946Z,9.00
2018-12-19T05:47:06.418Z,8.63
2018-12-19T05:49:34.488Z,9.20
2018-12-19T05:52:01.946Z,9.53
2018-12-19T05:54:29.413Z,9.17
2018-12-19T05:56:56.876Z,8.60
2018-12-19T05:59:24.384Z,9.57
2018-12-19T06:01:51.836Z,8.60
2018-12-19T06:04:19.317Z,9.43
2018-12-19T06:06:46.785Z,8.40
2018-12-19T06:09:14.267Z,9.57
2018-12-19T06:11:41.723Z,8.80
2018-12-19T06:14:09.193Z,8.17
2018-12-19T06:16:36.673Z,9.33
2018-12-19T06:19:04.171Z,9.10
2018-12-19T06:21:32.289Z,8.57
2018-12-19T06:23:59.914Z,9.60
2018-12-19T06:26:27.341Z,9.80
2018-12-19T06:28:54.861Z,9.53
2018-12-19T06:31:22.301Z,10.10
2018-12-19T06:33:50.285Z,8.70
2018-12-19T06:36:17.769Z,9.20
2018-12-19T06:38:45.253Z,9.93
2018-12-19T06:41:12.688Z,10.40
2018-12-19T06:43:40.180Z,9.60
2018-12-19T06:46:07.700Z,8.23
2018-12-19T06:48:35.193Z,8.97
2018-12-19T06:51:02.845Z,9.93
2018-12-19T06:53:30.325Z,9.67
2018-12-19T06:55:57.800Z,9.40
2018-12-19T06:58:25.245Z,9.80
2018-12-19T07:00:52.701Z,10.87
2018-12-19T07:03:20.163Z,10.77
2018-12-19T07:05:47.639Z,9.10
2018-12-19T07:08:15.126Z,9.27
2018-12-19T07:10:42.622Z,10.20
2018-12-19T07:13:10.094Z,9.97
2018-12-19T07:15:37.563Z,10.10
2018-12-19T07:18:05.088Z,13.50
2018-12-19T07:20:32.564Z,10.97
2018-12-19T07:23:00.038Z,10.50
2018-12-19T07:25:27.522Z,11.10
2018-12-19T07:27:54.960Z,10.03
2018-12-19T07:30:22.443Z,9.30
2018-12-19T07:32:49.958Z,9.30
2018-12-19T07:35:17.488Z,10.90
2018-12-19T07:37:45.121Z,10.30
2018-12-19T07:40:12.584Z,9.40
2018-12-19T07:42:40.039Z,10.87
2018-12-19T07:45:07.524Z,10.53
2018-12-19T07:47:34.988Z,10.53
2018-12-19T07:50:02.470Z,11.20
2018-12-19T07:52:30.032Z,10.60
2018-12-19T07:54:57.533Z,10.27
2018-12-19T07:57:24.989Z,10.70
2018-12-19T07:59:52.436Z,11.47
2018-12-19T08:02:20.133Z,12.03
2018-12-19T08:04:47.600Z,11.47
2018-12-19T08:07:15.064Z,12.90
2018-12-19T08:09:42.525Z,12.43
2018-12-19T08:12:09.996Z,11.57
2018-12-19T08:14:37.467Z,10.17
2018-12-19T08:17:04.898Z,10.97
2018-12-19T08:19:32.389Z,11.10
2018-12-19T08:21:59.852Z,10.60
2018-12-19T08:24:27.332Z,10.87
2018-12-19T08:26:54.823Z,9.57
2018-12-19T08:29:22.276Z,7.80
2018-12-19T08:31:49.734Z,11.10
2018-12-19T08:34:17.253Z,10.23
2018-12-19T08:36:44.919Z,8.57
2018-12-19T08:39:12.725Z,8.80
2018-12-19T08:41:40.603Z,10.47
2018-12-19T08:44:08.045Z,11.03
2018-12-19T08:46:35.517Z,12.03
2018-12-19T08:49:02.975Z,11.13
2018-12-19T08:51:30.480Z,10.40
2018-12-19T08:53:57.950Z,11.37
2018-12-19T08:56:25.435Z,12.27
2018-12-19T08:58:52.946Z,11.20
2018-12-19T09:01:20.429Z,11.83
2018-12-19T09:03:47.872Z,12.80
2018-12-19T09:06:15.384Z,10.60
2018-12-19T09:08:42.909Z,11.23
2018-12-19T09:11:10.363Z,11.20
2018-12-19T09:13:37.840Z,10.60
2018-12-19T09:16:05.319Z,9.63
2018-12-19T09:18:32.808Z,11.30
2018-12-19T09:21:00.253Z,7.77
2018-12-19T09:23:27.718Z,9.13
2018-12-19T09:25:55.179Z,8.70
2018-12-19T09:28:22.740Z,7.33
2018-12-19T09:30:50.232Z,6.43
2018-12-19T09:33:17.681Z,6.40
2018-12-19T09:35:45.174Z,7.30
2018-12-19T09:38:12.601Z,6.20
2018-12-19T09:40:40.040Z,5.60
2018-12-19T09:43:07.495Z,6.07
2018-12-19T09:45:34.944Z,14.73
2018-12-19T09:48:02.421Z,5.60
2018-12-19T09:50:29.892Z,4.97
2018-12-19T09:52:57.315Z,5.67
2018-12-19T09:55:24.882Z,4.60
2018-12-19T09:57:52.336Z,3.33
2018-12-19T10:00:25.443Z,4.67
2018-12-19T10:02:52.890Z,3.30
2018-12-19T10:05:20.366Z,3.30
2018-12-19T10:07:47.861Z,2.80
2018-12-19T10:10:15.333Z,3.37
2018-12-19T10:12:42.772Z,3.00
2018-12-19T10:15:10.251Z,2.97
2018-12-19T10:17:40.906Z,3.03
2018-12-19T10:20:07.244Z,3.80
2018-12-19T10:22:34.690Z,2.73
2018-12-19T10:25:07.790Z,3.33
2018-12-19T10:27:35.246Z,2.77
2018-12-19T10:30:03.739Z,2.77
2018-12-19T10:32:33.134Z,3.13
2018-12-19T10:35:00.735Z,2.70
2018-12-19T10:37:28.216Z,2.70
2018-12-19T10:39:55.772Z,2.33
2018-12-19T10:42:23.260Z,3.17
2018-12-19T10:44:50.699Z,2.23
2018-12-19T10:47:18.135Z,2.67
2018-12-19T10:49:45.614Z,1.93
2018-12-19T10:52:13.039Z,2.20
2018-12-19T10:54:40.499Z,1.80
2018-12-19T10:57:08.072Z,2.17
2018-12-19T10:59:35.562Z,2.30
2018-12-19T11:02:03.022Z,2.07
2018-12-19T11:04:30.478Z,1.70
2018-12-19T11:06:57.938Z,1.47
2018-12-19T11:09:25.400Z,1.30
2018-12-19T11:11:52.835Z,2.00
2018-12-19T11:14:20.290Z,2.20
2018-12-19T11:16:47.745Z,1.90
2018-12-19T11:19:15.221Z,1.70
2018-12-19T11:21:42.713Z,2.00
2018-12-19T11:24:10.226Z,1.87
2018-12-19T11:26:37.720Z,2.20
2018-12-19T11:29:05.166Z,1.83
2018-12-19T11:31:32.646Z,2.30
2018-12-19T11:34:00.088Z,2.00
2018-12-19T11:36:27.599Z,2.27
2018-12-19T11:38:55.044Z,2.10
2018-12-19T11:41:22.519Z,2.00
2018-12-19T11:43:49.986Z,2.20
2018-12-19T11:46:17.476Z,2.10
2018-12-19T11:48:44.959Z,2.00
2018-12-19T11:51:12.478Z,1.70
2018-12-19T11:53:39.941Z,1.73
2018-12-19T11:56:07.444Z,2.20
2018-12-19T11:58:34.892Z,2.30
2018-12-19T12:01:02.385Z,2.17
2018-12-19T12:03:29.866Z,1.80
2018-12-19T12:05:57.316Z,2.20
2018-12-19T12:08:24.768Z,2.87
2018-12-19T12:10:52.215Z,2.33
2018-12-19T12:13:19.672Z,2.17
2018-12-19T12:15:47.119Z,2.17
2018-12-19T12:18:15.226Z,2.70
2018-12-19T12:20:42.660Z,2.40
2018-12-19T12:23:10.493Z,2.43
2018-12-19T12:25:38.008Z,2.63
2018-12-19T12:28:05.662Z,2.90
2018-12-19T12:30:33.122Z,3.00
2018-12-19T12:33:01.135Z,2.47
2018-12-19T12:35:28.617Z,2.63
2018-12-19T12:37:56.049Z,2.80
2018-12-19T12:40:23.575Z,3.20
2018-12-19T12:42:51.049Z,3.57
2018-12-19T12:45:18.497Z,3.13
2018-12-19T12:47:45.966Z,3.17
2018-12-19T12:50:14.612Z,2.30
2018-12-19T12:52:42.063Z,2.40
2018-12-19T12:55:09.521Z,1.93
2018-12-19T12:57:36.983Z,2.80
2018-12-19T13:00:06.387Z,2.80
2018-12-19T13:02:33.833Z,2.40
2018-12-19T13:05:01.542Z,2.23
2018-12-19T13:07:28.988Z,3.27
2018-12-19T13:09:56.445Z,3.07
2018-12-19T13:12:23.988Z,2.73
2018-12-19T13:14:51.474Z,3.10
2018-12-19T13:17:18.976Z,2.60
2018-12-19T13:19:46.468Z,2.67
2018-12-19T13:22:13.948Z,3.30
2018-12-19T13:24:41.404Z,3.10
2018-12-19T13:27:08.849Z,3.27
2018-12-19T13:29:36.289Z,3.07
2018-12-19T13:32:03.773Z,2.10
2018-12-19T13:34:31.236Z,2.60
2018-12-19T13:36:58.830Z,2.20
2018-12-19T13:39:26.295Z,1.70
2018-12-19T13:41:53.756Z,4.20
2018-12-19T13:44:21.322Z,2.30
2018-12-19T13:46:48.835Z,2.07
2018-12-19T13:49:16.392Z,1.90
2018-12-19T13:51:43.839Z,1.83
2018-12-19T13:54:11.398Z,1.90
2018-12-19T13:56:38.924Z,1.97
2018-12-19T13:59:07.845Z,2.13
2018-12-19T14:01:35.278Z,1.77
2018-12-19T14:04:02.788Z,2.07
2018-12-19T14:06:30.247Z,1.90
2018-12-19T14:08:57.713Z,2.50
2018-12-19T14:11:25.227Z,2.23
2018-12-19T14:13:52.692Z,2.40
2018-12-19T14:16:20.193Z,2.83
2018-12-19T14:18:47.707Z,2.60
2018-12-19T14:21:15.280Z,3.47
2018-12-19T14:23:42.740Z,3.33
2018-12-19T14:26:10.225Z,3.23
2018-12-19T14:28:37.773Z,3.70
2018-12-19T14:31:05.270Z,3.20
2018-12-19T14:33:32.790Z,3.70
2018-12-19T14:36:00.236Z,3.50
2018-12-19T14:38:27.778Z,3.60
2018-12-19T14:40:55.231Z,3.83
2018-12-19T14:43:22.696Z,3.63
2018-12-19T14:45:50.198Z,3.80
2018-12-19T14:48:17.801Z,4.13
2018-12-19T14:50:45.308Z,2.97
2018-12-19T14:53:12.937Z,4.20
2018-12-19T14:55:40.431Z,3.97
2018-12-19T14:58:08.954Z,3.90
2018-12-19T15:00:36.424Z,3.47
2018-12-19T15:03:03.939Z,3.93
2018-12-19T15:05:31.426Z,3.93
2018-12-19T15:07:58.937Z,4.37
2018-12-19T15:10:26.412Z,4.00
2018-12-19T15:12:53.980Z,3.83
2018-12-19T15:15:23.369Z,3.87
2018-12-19T15:17:50.928Z,4.07
2018-12-19T15:20:18.381Z,4.10
2018-12-19T15:22:45.939Z,3.80
2018-12-19T15:25:13.430Z,8.53
2018-12-19T15:27:40.946Z,3.67
2018-12-19T15:30:08.444Z,4.27
2018-12-19T15:32:37.208Z,4.57
2018-12-19T15:35:04.903Z,5.07
2018-12-19T15:37:32.359Z,5.00
2018-12-19T15:39:59.870Z,5.20
2018-12-19T15:42:32.441Z,5.53
2018-12-19T15:44:57.869Z,40.80
2018-12-19T15:47:25.346Z,6.47
2018-12-19T15:49:52.830Z,6.20
2018-12-19T15:52:20.326Z,6.73
2018-12-19T15:54:47.966Z,6.60
2018-12-19T15:57:15.427Z,8.73
2018-12-19T15:59:42.928Z,6.97
2018-12-19T16:02:10.385Z,6.00
2018-12-19T16:04:38.054Z,5.80
2018-12-19T16:07:05.531Z,5.30
2018-12-19T16:09:33.027Z,4.80
2018-12-19T16:12:00.673Z,4.77
2018-12-19T16:14:29.069Z,5.17
2018-12-19T16:16:56.557Z,5.70
2018-12-19T16:19:24.033Z,5.30
2018-12-19T16:21:51.503Z,4.23
2018-12-19T16:24:18.947Z,4.83
2018-12-19T16:26:46.448Z,5.40
2018-12-19T16:29:14.033Z,4.43
2018-12-19T16:31:41.492Z,5.17
2018-12-19T16:34:09.062Z,4.43
2018-12-19T16:36:37.704Z,4.70
2018-12-19T16:39:07.495Z,4.20
2018-12-19T16:41:35.171Z,5.27
2018-12-19T16:44:02.729Z,6.30
2018-12-19T16:46:30.181Z,5.33
2018-12-19T16:48:57.684Z,5.23
2018-12-19T16:51:25.369Z,4.67
2018-12-19T16:53:52.890Z,3.90
2018-12-19T16:56:20.394Z,4.17
2018-12-19T16:58:47.829Z,4.30
2018-12-19T17:01:15.341Z,4.60
2018-12-19T17:03:42.916Z,5.20
2018-12-19T17:06:10.401Z,5.37
2018-12-19T17:08:37.875Z,6.97
2018-12-19T17:11:05.944Z,7.13
2018-12-19T17:13:33.448Z,7.77
2018-12-19T17:16:00.959Z,6.77
2018-12-19T17:18:28.439Z,5.63
2018-12-19T17:20:56.014Z,4.67
2018-12-19T17:23:23.991Z,7.40
2018-12-19T17:25:51.443Z,14.10
2018-12-19T17:28:19.046Z,12.97
2018-12-19T17:30:46.496Z,11.87
2018-12-19T17:33:13.961Z,10.20
2018-12-19T17:35:41.415Z,10.80
2018-12-19T17:38:08.930Z,9.00
2018-12-19T17:40:36.448Z,6.87
2018-12-19T17:43:03.997Z,5.53
2018-12-19T17:45:31.578Z,6.30
2018-12-19T17:47:59.083Z,6.50
2018-12-19T17:50:26.595Z,5.87
2018-12-19T17:52:54.129Z,6.60
2018-12-19T17:55:21.785Z,6.73
2018-12-19T17:57:49.234Z,5.57
2018-12-19T18:00:16.708Z,5.70
2018-12-19T18:02:44.180Z,4.33
2018-12-19T18:05:11.744Z,5.23
2018-12-19T18:07:39.300Z,4.60
2018-12-19T18:10:06.851Z,5.20
2018-12-19T18:12:34.304Z,4.97
2018-12-19T18:15:01.753Z,4.77
2018-12-19T18:17:29.245Z,5.20
2018-12-19T18:19:56.715Z,4.57
2018-12-19T18:22:24.223Z,4.47
2018-12-19T18:24:51.817Z,4.40
2018-12-19T18:27:19.261Z,3.90
2018-12-19T18:29:46.951Z,4.60
2018-12-19T18:32:14.408Z,4.57
2018-12-19T18:34:41.889Z,4.10
2018-12-19T18:37:09.762Z,5.20
2018-12-19T18:39:37.696Z,4.00
2018-12-19T18:42:05.211Z,3.90
2018-12-19T18:44:32.809Z,3.90
2018-12-19T18:47:02.034Z,5.07
2018-12-19T18:49:29.528Z,4.03
2018-12-19T18:51:57.101Z,4.40
2018-12-19T18:54:24.936Z,3.77
2018-12-19T18:56:52.425Z,4.23
2018-12-19T18:59:19.881Z,7.83
2018-12-19T19:01:47.406Z,4.83
2018-12-19T19:04:14.970Z,4.93
2018-12-19T19:06:42.576Z,5.73
2018-12-19T19:09:10.262Z,5.40
2018-12-19T19:11:37.776Z,6.10
2018-12-19T19:14:05.282Z,5.43
2018-12-19T19:19:23.909Z,5.43
2018-12-19T19:21:51.415Z,7.30
2018-12-19T19:24:19.022Z,3.93
2018-12-19T19:26:46.491Z,4.23
2018-12-19T19:29:13.941Z,3.93
2018-12-19T19:31:41.385Z,4.50
2018-12-19T19:34:08.853Z,4.03
2018-12-19T19:36:36.353Z,4.17
2018-12-19T19:39:06.470Z,4.73
2018-12-19T19:41:34.151Z,5.27
2018-12-19T19:44:01.679Z,4.67
2018-12-19T19:46:29.128Z,4.67
2018-12-19T19:48:56.591Z,4.63
2018-12-19T19:51:24.132Z,5.70
2018-12-19T19:53:51.619Z,6.67
2018-12-19T19:56:19.082Z,5.10
2018-12-19T19:58:46.562Z,6.87
2018-12-19T20:01:14.107Z,8.10
2018-12-19T20:03:41.605Z,7.10
2018-12-19T20:06:09.047Z,6.17
2018-12-19T20:08:37.295Z,5.73
2018-12-19T20:11:04.778Z,7.40
2018-12-19T20:13:33.453Z,7.50
2018-12-19T20:16:01.339Z,5.80
2018-12-19T20:18:28.839Z,7.90
2018-12-19T20:20:56.422Z,7.57
2018-12-19T20:23:23.890Z,6.60
2018-12-19T20:25:51.425Z,5.83
2018-12-19T20:28:18.866Z,6.40
2018-12-19T20:30:47.865Z,5.60
2018-12-19T20:33:15.353Z,5.80
2018-12-19T20:35:42.811Z,6.40
2018-12-19T20:38:10.278Z,5.67
2018-12-19T20:40:37.765Z,6.10
2018-12-19T20:43:06.737Z,5.83
2018-12-19T20:45:34.503Z,5.67
2018-12-19T20:48:01.990Z,6.23
2018-12-19T20:50:29.529Z,5.10
2018-12-19T20:52:56.974Z,6.03
2018-12-19T20:55:24.461Z,6.23
2018-12-19T20:57:51.928Z,5.87
2018-12-19T21:00:19.742Z,5.80
2018-12-19T21:02:47.245Z,6.20
2018-12-19T21:05:14.765Z,6.03
2018-12-19T21:07:42.202Z,4.70
2018-12-19T21:10:09.705Z,4.47
2018-12-19T21:12:37.510Z,5.30
2018-12-19T21:15:06.292Z,4.93
2018-12-19T21:17:39.581Z,5.40
2018-12-19T21:20:07.170Z,5.03
2018-12-19T21:22:35.022Z,4.40
2018-12-19T21:25:02.498Z,5.60
2018-12-19T21:27:29.966Z,5.50
2018-12-19T21:29:57.417Z,4.73
2018-12-19T21:32:24.910Z,4.70
2018-12-19T21:34:52.356Z,5.87
2018-12-19T21:37:19.832Z,5.77
2018-12-19T21:39:47.278Z,5.97
2018-12-19T21:42:18.238Z,6.10
2018-12-19T21:44:45.711Z,5.73
2018-12-19T21:47:13.257Z,5.40
2018-12-19T21:49:40.851Z,5.57
2018-12-19T21:52:08.432Z,6.07
2018-12-19T21:54:35.904Z,5.20
2018-12-19T21:57:03.486Z,5.13
2018-12-19T21:59:31.006Z,6.00
2018-12-19T22:02:00.352Z,5.83
2018-12-19T22:04:27.817Z,4.70
2018-12-19T22:06:55.353Z,5.63
2018-12-19T22:09:22.888Z,9.27
2018-12-19T22:11:50.863Z,5.50
2018-12-19T22:14:18.366Z,5.73
2018-12-19T22:16:51.582Z,6.33
2018-12-19T22:19:19.733Z,5.73
2018-12-19T22:21:47.231Z,5.07
2018-12-19T22:24:14.756Z,5.87
2018-12-19T22:26:42.361Z,6.30
2018-12-19T22:29:09.876Z,5.47
2018-12-19T22:31:38.430Z,6.90
2018-12-19T22:34:05.956Z,7.20
2018-12-19T22:36:33.520Z,6.20
2018-12-19T22:39:01.046Z,6.50
2018-12-19T22:41:30.170Z,5.70
2018-12-19T22:43:57.698Z,5.70
2018-12-19T22:46:25.251Z,5.60
2018-12-19T22:48:52.767Z,6.70
2018-12-19T22:51:20.220Z,6.70
2018-12-19T22:53:47.692Z,6.53
2018-12-19T22:56:15.263Z,6.90
2018-12-19T22:58:42.725Z,7.50
2018-12-19T23:01:18.563Z,6.80
2018-12-19T23:03:51.662Z,7.80
2018-12-19T23:06:19.236Z,8.20
2018-12-19T23:08:46.711Z,9.87
2018-12-19T23:11:14.741Z,7.93
2018-12-19T23:13:42.270Z,7.77
2018-12-19T23:16:09.811Z,9.00
2018-12-19T23:18:37.922Z,8.90
2018-12-19T23:21:05.857Z,8.17
2018-12-19T23:23:33.440Z,20.87
2018-12-19T23:26:00.968Z,18.87
2018-12-19T23:28:28.615Z,8.43
2018-12-19T23:30:56.058Z,7.67
2018-12-19T23:33:23.513Z,7.90
2018-12-19T23:35:50.970Z,8.63
2018-12-19T23:38:18.522Z,9.37
2018-12-19T23:40:46.078Z,8.50
2018-12-19T23:43:13.731Z,10.03
2018-12-19T23:45:41.282Z,7.90
2018-12-19T23:48:08.752Z,7.23
2018-12-19T23:50:36.294Z,7.23
2018-12-19T23:53:03.817Z,7.80
2018-12-19T23:55:31.302Z,7.13
2018-12-19T23:57:58.821Z,7.00
